Current Weather

John H Batten Airport

John H Batten Airport, Wisconsin (KRAC)

Report from: Monday, May 23, 2022 2:53 AM CDT
Current time: Monday, May 23, 2022 3:50 AM CDT

Nearby weather
Weather history
Weather forecast

Temperature7.2°C (45.0°F)
Wind chill6.4°C (43.5°F)
Dew point4.4°C (39.9°F)
Winds 3 kts (1.5 m/s, 3.5 mph) West-Northwest (290°)
Visibility10 mi. (16.1 km)
Clouds Ceiling: Overcast 7,000 ft. (2,134 m)
Altimeter30.39 in.Hg (1029 mB)
Relative humidity82 %
Density altitude-1,352 ft. (-412 m)
Sea-level pressure102.9 kPa (1029 mB, 30.40 in.Hg)
Remarks Fully automated report
Automated weather observing station with precipitation discriminator
Flight conditions Visual Meteorological Conditions
Raw dataKRAC 230753Z AUTO 29003KT 10SM OVC070 07/04 A3039 RMK AO2 SLP293 T00720044
An error has occurred. This application may no longer respond until reloaded. Reload 🗙